createdAt,value
2019-03-15T00:01:45.382Z,44.20
2019-03-15T00:04:17.957Z,39.60
2019-03-15T00:06:50.648Z,45.90
2019-03-15T00:09:25.867Z,44.27
2019-03-15T00:11:58.368Z,42.15
2019-03-15T00:14:30.838Z,41.13
2019-03-15T00:17:03.308Z,41.98
2019-03-15T00:19:35.787Z,42.75
2019-03-15T00:22:08.251Z,37.80
2019-03-15T00:24:41.710Z,37.05
2019-03-15T00:27:14.226Z,29.45
2019-03-15T00:29:48.998Z,30.75
2019-03-15T00:32:22.388Z,36.85
2019-03-15T00:34:54.927Z,40.65
2019-03-15T00:37:27.418Z,33.15
2019-03-15T00:39:59.619Z,37.78
2019-03-15T00:45:03.167Z,37.45
2019-03-15T00:47:35.377Z,28.55
2019-03-15T00:52:39.124Z,23.75
2019-03-15T00:55:11.698Z,25.57
2019-03-15T00:57:44.052Z,21.87
2019-03-15T01:00:16.788Z,25.27
2019-03-15T01:02:49.188Z,23.92
2019-03-15T01:05:21.637Z,31.17
2019-03-15T01:07:53.977Z,24.23
2019-03-15T01:10:26.398Z,26.35
2019-03-15T01:12:58.988Z,23.85
2019-03-15T01:15:31.508Z,31.70
2019-03-15T01:18:03.718Z,27.20
2019-03-15T01:20:36.317Z,22.27
2019-03-15T01:23:08.823Z,25.35
2019-03-15T01:25:41.139Z,25.15
2019-03-15T01:28:13.843Z,32.23
2019-03-15T01:30:46.238Z,20.02
2019-03-15T01:33:18.618Z,22.87
2019-03-15T01:35:51.088Z,25.92
2019-03-15T01:38:23.368Z,25.08
2019-03-15T01:43:26.938Z,20.30
2019-03-15T01:45:59.358Z,28.60
2019-03-15T01:48:31.936Z,31.02
2019-03-15T01:51:05.452Z,31.77
2019-03-15T01:53:37.830Z,29.23
2019-03-15T01:56:10.237Z,32.03
2019-03-15T01:58:42.738Z,31.30
2019-03-15T02:01:15.188Z,29.00
2019-03-15T02:03:47.488Z,29.25
2019-03-15T02:08:50.948Z,35.13
2019-03-15T02:11:23.530Z,29.10
2019-03-15T02:13:56.017Z,32.25
2019-03-15T02:16:28.609Z,37.53
2019-03-15T02:19:01.078Z,33.33
2019-03-15T02:21:34.528Z,31.42
2019-03-15T02:24:06.930Z,29.18
2019-03-15T02:26:39.269Z,31.80
2019-03-15T02:29:11.818Z,31.68
2019-03-15T02:31:44.269Z,29.95
2019-03-15T02:34:16.759Z,27.25
2019-03-15T02:36:49.178Z,28.98
2019-03-15T02:39:22.088Z,31.15
2019-03-15T02:41:54.642Z,33.38
2019-03-15T02:44:26.910Z,29.90
2019-03-15T02:46:59.515Z,36.03
2019-03-15T02:49:31.861Z,26.90
2019-03-15T02:52:04.741Z,26.97
2019-03-15T02:54:37.258Z,22.10
2019-03-15T02:57:10.447Z,23.38
2019-03-15T03:02:13.687Z,19.17
2019-03-15T03:07:17.429Z,22.37
2019-03-15T03:09:49.995Z,24.25
2019-03-15T03:12:22.422Z,23.95
2019-03-15T03:14:55.238Z,22.42
2019-03-15T03:17:27.700Z,27.05
2019-03-15T03:20:00.908Z,28.85
2019-03-15T03:22:35.291Z,26.68
2019-03-15T03:25:08.590Z,20.20
2019-03-15T03:27:40.904Z,18.52
2019-03-15T03:30:16.493Z,26.10
2019-03-15T03:32:47.718Z,22.58
2019-03-15T03:35:20.230Z,26.65
2019-03-15T03:37:52.777Z,30.55
2019-03-15T03:40:25.209Z,31.17
2019-03-15T03:42:57.710Z,34.08
2019-03-15T03:45:30.059Z,31.40
2019-03-15T03:48:02.328Z,34.05
2019-03-15T03:53:05.598Z,29.30
2019-03-15T03:55:37.907Z,27.55
2019-03-15T03:58:10.559Z,31.25
2019-03-15T04:00:43.028Z,24.05
2019-03-15T04:03:15.538Z,24.15
2019-03-15T04:05:48.088Z,21.00
2019-03-15T04:08:20.458Z,25.02
2019-03-15T04:10:52.808Z,28.98
2019-03-15T04:13:25.488Z,25.43
2019-03-15T04:15:57.951Z,24.40
2019-03-15T04:18:30.408Z,29.92
2019-03-15T04:21:03.047Z,31.02
2019-03-15T04:23:37.995Z,24.77
2019-03-15T04:26:09.758Z,25.70
2019-03-15T04:28:42.049Z,24.12
2019-03-15T04:31:15.557Z,25.82
2019-03-15T04:33:48.021Z,15.20
2019-03-15T04:36:20.547Z,18.00
2019-03-15T04:38:52.828Z,19.42
2019-03-15T04:41:25.298Z,23.38
2019-03-15T04:43:58.688Z,24.87
2019-03-15T04:46:32.698Z,22.70
2019-03-15T04:49:05.228Z,21.45
2019-03-15T04:51:37.648Z,19.45
2019-03-15T04:54:10.008Z,18.52
2019-03-15T04:56:42.999Z,16.90
2019-03-15T04:59:15.578Z,25.75
2019-03-15T05:01:47.888Z,17.65
2019-03-15T05:04:20.919Z,23.77
2019-03-15T05:06:53.389Z,22.67
2019-03-15T05:09:25.772Z,25.17
2019-03-15T05:11:58.197Z,25.70
2019-03-15T05:14:30.558Z,27.55
2019-03-15T05:17:02.981Z,27.27
2019-03-15T05:19:35.458Z,24.10
2019-03-15T05:22:07.820Z,21.65
2019-03-15T05:24:40.813Z,24.75
2019-03-15T05:27:13.338Z,22.82
2019-03-15T05:29:45.983Z,21.45
2019-03-15T05:32:18.559Z,26.35
2019-03-15T05:34:51.078Z,28.32
2019-03-15T05:37:23.523Z,26.93
2019-03-15T05:39:55.959Z,36.90
2019-03-15T05:44:59.578Z,35.17
2019-03-15T05:47:32.168Z,35.85
2019-03-15T05:50:04.938Z,32.75
2019-03-15T05:52:37.486Z,32.53
2019-03-15T05:55:11.311Z,28.62
2019-03-15T05:57:44.923Z,26.30
2019-03-15T06:00:17.450Z,30.72
2019-03-15T06:02:51.093Z,18.45
2019-03-15T06:05:23.418Z,25.45
2019-03-15T06:07:55.908Z,26.73
2019-03-15T06:10:28.223Z,25.88
2019-03-15T06:13:00.873Z,30.60
2019-03-15T06:15:33.329Z,26.10
2019-03-15T06:18:06.944Z,24.45
2019-03-15T06:20:39.528Z,24.50
2019-03-15T06:23:11.929Z,14.30
2019-03-15T06:25:44.368Z,25.85
2019-03-15T06:28:16.708Z,20.55
2019-03-15T06:30:49.789Z,18.42
2019-03-15T06:33:22.281Z,25.37
2019-03-15T06:35:55.028Z,27.00
2019-03-15T06:38:28.499Z,25.10
2019-03-15T06:41:01.028Z,30.30
2019-03-15T06:43:33.308Z,25.85
2019-03-15T06:48:37.190Z,26.48
2019-03-15T06:51:09.639Z,57.55
2019-03-15T06:53:42.098Z,29.30
2019-03-15T06:56:14.638Z,28.40
2019-03-15T06:58:47.128Z,26.17
2019-03-15T07:01:19.484Z,26.68
2019-03-15T07:03:52.012Z,28.70
2019-03-15T07:06:24.346Z,33.53
2019-03-15T07:08:56.887Z,35.08
2019-03-15T07:11:29.488Z,47.50
2019-03-15T07:14:01.938Z,40.35
2019-03-15T07:16:37.958Z,29.40
2019-03-15T07:19:09.018Z,34.30
2019-03-15T07:21:41.528Z,32.30
2019-03-15T07:24:24.394Z,25.50
2019-03-15T07:26:48.441Z,26.80
2019-03-15T07:29:21.219Z,27.07
2019-03-15T07:31:54.138Z,30.60
2019-03-15T07:34:26.658Z,43.15
2019-03-15T07:36:59.188Z,21.12
2019-03-15T07:39:31.728Z,26.37
2019-03-15T07:42:04.348Z,25.43
2019-03-15T07:44:36.798Z,23.55
2019-03-15T07:47:09.212Z,20.43
2019-03-15T07:49:42.100Z,23.83
2019-03-15T07:52:14.568Z,26.00
2019-03-15T07:54:46.893Z,20.68
2019-03-15T07:57:19.387Z,26.37
2019-03-15T07:59:51.911Z,24.47
2019-03-15T08:02:24.789Z,35.28
2019-03-15T08:04:57.108Z,31.73
2019-03-15T08:07:36.171Z,29.25
2019-03-15T08:10:03.725Z,31.77
2019-03-15T08:12:38.709Z,35.52
2019-03-15T08:15:10.729Z,34.40
2019-03-15T08:17:43.169Z,29.20
2019-03-15T08:20:15.851Z,32.15
2019-03-15T08:22:48.203Z,43.05
2019-03-15T08:25:21.647Z,43.00
2019-03-15T08:27:54.047Z,32.53
2019-03-15T08:30:26.496Z,40.60
2019-03-15T08:33:09.597Z,44.58
2019-03-15T08:35:33.208Z,35.80
2019-03-15T08:38:05.703Z,35.40
2019-03-15T08:40:38.278Z,29.20
2019-03-15T08:43:10.717Z,34.15
2019-03-15T08:45:43.194Z,33.08
2019-03-15T08:48:15.608Z,26.35
2019-03-15T08:50:48.068Z,26.25
2019-03-15T08:53:21.258Z,34.00
2019-03-15T08:55:53.598Z,56.63
2019-03-15T08:58:26.017Z,48.45
2019-03-15T09:00:58.534Z,42.15
2019-03-15T09:03:34.158Z,40.50
2019-03-15T09:06:05.098Z,53.80
2019-03-15T09:08:37.729Z,26.90
2019-03-15T09:11:11.289Z,29.45
2019-03-15T09:13:43.537Z,19.95
2019-03-15T09:16:15.929Z,24.18
2019-03-15T09:18:48.403Z,22.95
2019-03-15T09:21:20.930Z,24.02
2019-03-15T09:23:53.748Z,24.72
2019-03-15T09:26:26.388Z,25.27
2019-03-15T09:28:58.907Z,22.70
2019-03-15T09:31:46.410Z,32.28
2019-03-15T09:34:05.668Z,28.12
2019-03-15T09:36:49.388Z,26.45
2019-03-15T09:39:12.267Z,31.55
2019-03-15T09:44:15.738Z,21.40
2019-03-15T09:46:48.020Z,29.87
2019-03-15T09:49:20.778Z,29.57
2019-03-15T09:51:53.007Z,28.17
2019-03-15T09:54:26.283Z,34.60
2019-03-15T09:56:58.918Z,35.63
2019-03-15T09:59:31.572Z,38.38
2019-03-15T10:02:07.601Z,41.48
2019-03-15T10:04:38.478Z,32.58
2019-03-15T10:07:11.077Z,41.68
2019-03-15T10:09:46.170Z,37.13
2019-03-15T10:12:17.659Z,43.42
2019-03-15T10:14:50.721Z,37.98
2019-03-15T10:17:23.274Z,37.05
2019-03-15T10:19:56.799Z,38.15
2019-03-15T10:22:29.367Z,34.65
2019-03-15T10:25:01.919Z,30.43
2019-03-15T10:27:34.599Z,33.73
2019-03-15T10:30:08.058Z,33.95
2019-03-15T10:32:41.216Z,32.42
2019-03-15T10:35:13.942Z,28.23
2019-03-15T10:49:17.258Z,209.10
2019-03-15T10:51:49.798Z,96.25
2019-03-15T10:54:22.418Z,53.17
2019-03-15T10:56:54.932Z,56.88
2019-03-15T10:59:27.518Z,25.02
2019-03-15T11:01:59.989Z,13.93
2019-03-15T11:04:33.419Z,10.78
2019-03-15T11:07:05.979Z,10.18
2019-03-15T11:09:38.508Z,12.80
2019-03-15T11:12:11.278Z,12.53
2019-03-15T11:14:43.823Z,8.53
2019-03-15T11:17:16.348Z,10.63
2019-03-15T11:19:48.781Z,12.93
2019-03-15T11:22:21.367Z,12.63
2019-03-15T11:24:53.901Z,12.95
2019-03-15T11:27:26.568Z,13.62
2019-03-15T11:29:59.138Z,9.70
2019-03-15T11:32:31.518Z,11.00
2019-03-15T11:35:04.225Z,13.25
2019-03-15T11:37:36.693Z,14.70
2019-03-15T11:40:09.807Z,8.55
2019-03-15T11:42:42.219Z,9.35
2019-03-15T11:45:14.711Z,14.23
2019-03-15T11:48:02.596Z,10.13
2019-03-15T11:50:21.340Z,11.50
2019-03-15T11:52:53.749Z,11.38
2019-03-15T11:55:26.332Z,11.00
2019-03-15T11:57:59.109Z,9.18
2019-03-15T12:00:31.676Z,13.10
2019-03-15T12:03:04.156Z,10.30
2019-03-15T12:05:36.730Z,10.38
2019-03-15T12:08:09.260Z,10.88
2019-03-15T12:10:41.649Z,9.55
2019-03-15T12:13:14.077Z,5.90
2019-03-15T12:15:46.508Z,5.60
2019-03-15T12:18:19.131Z,7.47
2019-03-15T12:20:51.478Z,8.03
2019-03-15T12:25:54.809Z,7.87
2019-03-15T12:28:28.703Z,8.35
2019-03-15T12:31:02.008Z,18.62
2019-03-15T12:33:34.596Z,10.03
2019-03-15T12:36:07.138Z,6.67
2019-03-15T12:38:39.659Z,9.10
2019-03-15T12:41:12.218Z,7.20
2019-03-15T12:43:45.748Z,9.10
2019-03-15T12:46:18.148Z,10.72
2019-03-15T12:48:50.608Z,11.48
2019-03-15T12:51:32.106Z,13.00
2019-03-15T12:53:57.238Z,35.90
2019-03-15T12:56:29.679Z,17.92
2019-03-15T12:59:02.150Z,15.32
2019-03-15T13:01:35.709Z,23.77
2019-03-15T13:04:08.088Z,21.82
2019-03-15T13:06:40.507Z,28.15
2019-03-15T13:09:13.069Z,22.73
2019-03-15T13:11:45.889Z,19.90
2019-03-15T13:14:18.368Z,17.27
2019-03-15T13:16:50.802Z,23.57
2019-03-15T13:19:23.268Z,17.12
2019-03-15T13:21:55.709Z,20.27
2019-03-15T13:24:30.528Z,21.57
2019-03-15T13:27:07.670Z,24.32
2019-03-15T13:29:37.407Z,22.77
2019-03-15T13:32:10.208Z,14.87
2019-03-15T13:34:42.814Z,14.85
2019-03-15T13:37:15.448Z,16.00
2019-03-15T13:39:47.958Z,14.80
2019-03-15T13:42:20.458Z,14.35
2019-03-15T13:44:55.272Z,11.50
2019-03-15T13:47:27.568Z,13.28
2019-03-15T13:52:31.278Z,13.20
2019-03-15T13:55:03.859Z,11.63
2019-03-15T13:57:37.448Z,9.95
2019-03-15T14:00:11.008Z,12.58
2019-03-15T14:02:43.588Z,9.35
2019-03-15T14:05:16.103Z,12.95
2019-03-15T14:07:48.746Z,8.78
2019-03-15T14:10:21.298Z,11.48
2019-03-15T14:12:53.849Z,10.30
2019-03-15T14:15:26.509Z,14.73
2019-03-15T14:17:59.188Z,12.20
2019-03-15T14:20:31.744Z,18.90
2019-03-15T14:23:04.150Z,22.50
2019-03-15T14:25:36.703Z,18.98
2019-03-15T14:28:09.409Z,16.45
2019-03-15T14:30:43.008Z,12.47
2019-03-15T14:33:15.585Z,10.03
2019-03-15T14:35:48.288Z,9.18
2019-03-15T14:38:21.781Z,9.43
2019-03-15T14:40:54.443Z,11.90
2019-03-15T14:43:27.037Z,11.57
2019-03-15T14:45:59.600Z,10.68
2019-03-15T14:48:32.268Z,12.90
2019-03-15T14:51:04.858Z,12.45
2019-03-15T14:53:37.792Z,10.60
2019-03-15T14:56:10.389Z,9.95
2019-03-15T14:58:42.956Z,14.78
2019-03-15T15:01:15.598Z,10.25
2019-03-15T15:03:48.069Z,11.08
2019-03-15T15:06:20.601Z,10.35
2019-03-15T15:08:53.148Z,12.03
2019-03-15T15:11:25.836Z,9.63
2019-03-15T15:13:58.767Z,12.80
2019-03-15T15:16:31.370Z,13.08
2019-03-15T15:19:04.009Z,13.90
2019-03-15T15:21:36.758Z,11.90
2019-03-15T15:24:09.573Z,11.38
2019-03-15T15:26:42.058Z,13.00
2019-03-15T15:29:15.338Z,12.13
2019-03-15T15:31:47.700Z,11.75
2019-03-15T15:34:21.089Z,12.47
2019-03-15T15:36:53.838Z,12.88
2019-03-15T15:39:26.531Z,15.53
2019-03-15T15:41:58.932Z,16.93
2019-03-15T15:44:32.648Z,15.68
2019-03-15T15:47:05.138Z,13.03
2019-03-15T15:49:38.403Z,14.65
2019-03-15T15:52:10.948Z,12.88
2019-03-15T15:54:44.048Z,11.38
2019-03-15T15:57:16.408Z,14.18
2019-03-15T16:02:19.888Z,12.07
2019-03-15T16:04:52.555Z,10.00
2019-03-15T16:07:25.002Z,15.00
2019-03-15T16:09:57.588Z,12.15
2019-03-15T16:12:29.986Z,10.75
2019-03-15T16:15:02.481Z,9.73
2019-03-15T16:17:34.927Z,10.48
2019-03-15T16:20:08.178Z,9.83
2019-03-15T16:22:41.107Z,8.70
2019-03-15T16:25:13.617Z,8.45
2019-03-15T16:27:46.158Z,10.25
2019-03-15T16:30:18.710Z,8.48
2019-03-15T16:32:51.037Z,8.23
2019-03-15T16:35:24.179Z,8.15
2019-03-15T16:37:56.638Z,8.55
2019-03-15T16:40:29.329Z,7.67
2019-03-15T16:43:01.978Z,11.35
2019-03-15T16:45:34.369Z,6.97
2019-03-15T16:48:06.818Z,9.10
2019-03-15T16:50:39.469Z,7.92
2019-03-15T16:53:12.000Z,7.10
2019-03-15T16:55:44.538Z,7.08
2019-03-15T16:58:17.004Z,8.30
2019-03-15T17:00:50.445Z,6.75
2019-03-15T17:03:24.108Z,10.93
2019-03-15T17:05:56.648Z,9.10
2019-03-15T17:08:29.308Z,9.70
2019-03-15T17:11:01.868Z,8.18
2019-03-15T17:13:34.267Z,8.50
2019-03-15T17:16:06.832Z,9.98
2019-03-15T17:18:39.368Z,7.97
2019-03-15T17:23:43.968Z,6.35
2019-03-15T17:26:16.447Z,11.33
2019-03-15T17:28:58.623Z,11.65
2019-03-15T17:31:23.364Z,14.25
2019-03-15T17:33:55.828Z,13.10
2019-03-15T17:36:28.458Z,13.65
2019-03-15T17:39:01.167Z,14.45
2019-03-15T17:41:35.148Z,12.55
2019-03-15T17:44:07.620Z,13.78
2019-03-15T17:46:40.304Z,14.00
2019-03-15T17:49:13.447Z,16.65
2019-03-15T17:51:46.068Z,17.05
2019-03-15T17:54:18.528Z,15.10
2019-03-15T17:56:51.068Z,15.25
2019-03-15T17:59:23.567Z,16.80
2019-03-15T18:01:57.878Z,13.95
2019-03-15T18:04:30.409Z,18.07
2019-03-15T18:07:03.644Z,18.35
2019-03-15T18:09:36.228Z,22.70
2019-03-15T18:12:08.838Z,19.05
2019-03-15T18:14:41.259Z,23.30
2019-03-15T18:17:13.878Z,26.97
2019-03-15T18:19:46.330Z,24.00
2019-03-15T18:22:18.771Z,23.65
2019-03-15T18:24:51.293Z,25.90
2019-03-15T18:27:23.657Z,25.97
2019-03-15T18:29:56.323Z,25.15
2019-03-15T18:32:28.778Z,30.25
2019-03-15T18:35:01.519Z,31.25
2019-03-15T18:37:34.021Z,30.82
2019-03-15T18:40:09.328Z,26.37
2019-03-15T18:42:42.287Z,26.50
2019-03-15T18:45:15.229Z,33.28
2019-03-15T18:47:47.797Z,33.30
2019-03-15T18:50:22.017Z,31.80
2019-03-15T18:52:54.550Z,35.25
2019-03-15T18:55:27.095Z,38.53
2019-03-15T18:58:00.637Z,34.30
2019-03-15T19:00:34.168Z,32.28
2019-03-15T19:03:06.601Z,36.83
2019-03-15T19:05:39.096Z,35.15
2019-03-15T19:08:11.548Z,33.08
2019-03-15T19:10:44.277Z,35.20
2019-03-15T19:13:16.867Z,32.55
2019-03-15T19:15:49.438Z,38.40
2019-03-15T19:18:22.298Z,35.28
2019-03-15T19:20:54.937Z,43.05
2019-03-15T19:23:28.658Z,39.73
2019-03-15T19:26:01.038Z,35.28
2019-03-15T19:28:33.652Z,35.90
2019-03-15T19:31:15.107Z,35.83
2019-03-15T19:33:47.872Z,30.27
2019-03-15T19:36:20.447Z,32.35
2019-03-15T19:38:53.088Z,29.92
2019-03-15T19:41:25.758Z,27.15
2019-03-15T19:43:58.748Z,35.38
2019-03-15T19:46:31.357Z,31.68
2019-03-15T19:49:05.069Z,33.42
2019-03-15T19:51:37.568Z,31.82
2019-03-15T19:54:10.347Z,31.68
2019-03-15T19:56:43.038Z,27.40
2019-03-15T19:59:16.348Z,40.17
2019-03-15T20:01:49.088Z,35.58
2019-03-15T20:04:22.257Z,33.42
2019-03-15T20:06:56.291Z,32.85
2019-03-15T20:09:29.029Z,37.93
2019-03-15T20:12:01.617Z,33.55
2019-03-15T20:14:34.280Z,32.10
2019-03-15T20:17:06.911Z,31.90
2019-03-15T20:19:39.559Z,34.65
2019-03-15T20:22:13.737Z,30.75
2019-03-15T20:24:46.118Z,30.15
2019-03-15T20:27:19.591Z,25.97
2019-03-15T20:29:53.207Z,28.07
2019-03-15T20:32:26.827Z,27.25
2019-03-15T20:34:59.687Z,35.17
2019-03-15T20:37:32.904Z,31.12
2019-03-15T20:40:06.760Z,25.17
2019-03-15T20:42:42.694Z,26.27
2019-03-15T20:45:17.047Z,21.65
2019-03-15T20:47:51.088Z,25.20
2019-03-15T20:50:24.045Z,24.23
2019-03-15T20:53:07.822Z,26.60
2019-03-15T20:55:34.942Z,18.15
2019-03-15T20:58:08.730Z,23.92
2019-03-15T21:00:42.151Z,15.80
2019-03-15T21:03:14.986Z,17.02
2019-03-15T21:05:48.340Z,21.82
2019-03-15T21:08:20.941Z,25.45
2019-03-15T21:10:53.675Z,21.57
2019-03-15T21:13:27.547Z,21.50
2019-03-15T21:16:00.006Z,25.00
2019-03-15T21:18:33.187Z,24.70
2019-03-15T21:21:05.868Z,25.35
2019-03-15T21:23:39.278Z,24.45
2019-03-15T21:26:11.757Z,28.25
2019-03-15T21:28:44.427Z,26.68
2019-03-15T21:31:17.000Z,26.33
2019-03-15T21:33:49.488Z,29.35
2019-03-15T21:36:22.048Z,24.37
2019-03-15T21:38:54.547Z,23.75
2019-03-15T21:41:27.257Z,27.27
2019-03-15T21:43:59.977Z,26.10
2019-03-15T21:46:32.627Z,26.52
2019-03-15T21:49:05.475Z,30.68
2019-03-15T21:51:37.948Z,28.40
2019-03-15T21:54:10.689Z,24.65
2019-03-15T21:56:43.332Z,24.77
2019-03-15T21:59:15.777Z,31.85
2019-03-15T22:01:49.430Z,24.32
2019-03-15T22:04:26.427Z,26.65
2019-03-15T22:06:58.937Z,28.38
2019-03-15T22:09:31.450Z,31.12
2019-03-15T22:12:03.847Z,30.80
2019-03-15T22:14:36.257Z,31.33
2019-03-15T22:17:08.578Z,24.77
2019-03-15T22:19:41.150Z,29.67
2019-03-15T22:22:13.750Z,25.17
2019-03-15T22:24:46.087Z,26.10
2019-03-15T22:27:18.611Z,22.30
2019-03-15T22:29:53.633Z,23.90
2019-03-15T22:32:25.477Z,26.80
2019-03-15T22:34:57.926Z,22.70
2019-03-15T22:37:30.768Z,21.85
2019-03-15T22:40:03.378Z,27.35
2019-03-15T22:42:35.796Z,21.23
2019-03-15T22:45:08.412Z,19.85
2019-03-15T22:47:40.885Z,22.37
2019-03-15T22:50:13.479Z,20.17
2019-03-15T22:52:45.748Z,19.02
2019-03-15T22:55:18.288Z,23.92
2019-03-15T22:57:59.934Z,19.95
2019-03-15T23:00:30.622Z,20.50
2019-03-15T23:03:04.900Z,18.65
2019-03-15T23:05:37.713Z,18.62
2019-03-15T23:08:10.489Z,17.62
2019-03-15T23:10:43.058Z,17.07
2019-03-15T23:13:15.829Z,19.60
2019-03-15T23:15:48.338Z,19.70
2019-03-15T23:18:20.767Z,18.27
2019-03-15T23:20:53.209Z,21.10
2019-03-15T23:23:25.553Z,22.13
2019-03-15T23:25:58.038Z,24.43
2019-03-15T23:28:31.667Z,25.08
2019-03-15T23:31:04.780Z,28.83
2019-03-15T23:33:37.277Z,21.57
2019-03-15T23:36:10.537Z,19.57
2019-03-15T23:38:43.139Z,19.80
2019-03-15T23:41:15.719Z,18.65
2019-03-15T23:43:49.488Z,27.27
2019-03-15T23:46:22.208Z,15.63
2019-03-15T23:48:54.668Z,22.55
2019-03-15T23:51:27.100Z,19.75
2019-03-15T23:53:59.488Z,22.65
2019-03-15T23:56:32.267Z,25.55
2019-03-15T23:59:04.648Z,18.60
